createdAt,value
2022-11-22T00:02:06.627Z,1.60
2022-11-22T00:04:58.991Z,1.60
2022-11-22T00:07:51.276Z,1.50
2022-11-22T00:10:43.453Z,1.50
2022-11-22T00:13:35.586Z,1.50
2022-11-22T00:16:27.687Z,1.40
2022-11-22T00:19:19.782Z,1.40
2022-11-22T00:22:11.950Z,1.50
2022-11-22T00:25:04.439Z,1.50
2022-11-22T00:27:56.581Z,1.60
2022-11-22T00:30:48.671Z,1.60
2022-11-22T00:33:40.793Z,1.60
2022-11-22T00:36:32.904Z,1.60
2022-11-22T00:39:25.041Z,1.40
2022-11-22T00:42:17.292Z,1.50
2022-11-22T00:45:09.816Z,1.50
2022-11-22T00:48:01.942Z,1.40
2022-11-22T00:50:56.022Z,1.40
2022-11-22T00:53:48.178Z,1.40
2022-11-22T00:56:40.341Z,1.50
2022-11-22T00:59:32.620Z,1.50
2022-11-22T01:02:24.866Z,1.50
2022-11-22T01:05:18.105Z,1.40
2022-11-22T01:08:10.385Z,1.50
2022-11-22T01:11:02.646Z,1.60
2022-11-22T01:13:55.005Z,1.70
2022-11-22T01:16:47.737Z,1.80
2022-11-22T01:19:39.993Z,1.80
2022-11-22T01:22:32.153Z,1.90
2022-11-22T01:25:24.372Z,1.90
2022-11-22T01:28:17.673Z,2.00
2022-11-22T01:31:09.864Z,2.10
2022-11-22T01:34:04.658Z,2.10
2022-11-22T01:36:56.812Z,2.10
2022-11-22T01:39:48.963Z,2.20
2022-11-22T01:42:51.682Z,2.30
2022-11-22T01:45:48.175Z,2.40
2022-11-22T01:48:59.987Z,2.40
2022-11-22T01:51:56.064Z,2.50
2022-11-22T01:54:54.661Z,2.60
2022-11-22T01:57:47.627Z,2.70
2022-11-22T02:00:39.938Z,2.30
2022-11-22T02:03:34.709Z,2.10
2022-11-22T02:06:35.982Z,2.00
2022-11-22T02:09:29.465Z,2.00
2022-11-22T02:12:27.951Z,2.00
2022-11-22T02:15:20.134Z,1.90
2022-11-22T02:18:12.407Z,2.00
2022-11-22T02:21:05.308Z,2.00
2022-11-22T02:24:11.864Z,1.90
2022-11-22T02:27:04.455Z,1.90
2022-11-22T02:29:56.559Z,1.90
2022-11-22T02:32:48.712Z,1.90
2022-11-22T02:35:41.921Z,2.00
2022-11-22T02:38:35.448Z,2.00
2022-11-22T02:41:28.014Z,2.00
2022-11-22T02:44:21.512Z,2.00
2022-11-22T02:47:13.692Z,2.00
2022-11-22T02:50:06.435Z,2.00
2022-11-22T02:52:58.555Z,2.00
2022-11-22T02:55:51.059Z,2.00
2022-11-22T02:58:44.312Z,2.00
2022-11-22T03:01:36.537Z,2.00
2022-11-22T03:04:28.713Z,2.00
2022-11-22T03:07:20.955Z,2.00
2022-11-22T03:10:13.229Z,2.10
2022-11-22T03:13:05.355Z,2.10
2022-11-22T03:15:57.447Z,2.10
2022-11-22T03:18:49.607Z,2.20
2022-11-22T03:21:42.926Z,2.20
2022-11-22T03:24:35.099Z,2.20
2022-11-22T03:27:27.306Z,2.20
2022-11-22T03:30:19.543Z,2.20
2022-11-22T03:33:11.789Z,2.20
2022-11-22T03:36:04.115Z,2.20
2022-11-22T03:38:56.205Z,2.20
2022-11-22T03:41:48.441Z,2.20
2022-11-22T03:44:40.538Z,2.30
2022-11-22T03:47:32.764Z,2.30
2022-11-22T03:50:25.297Z,2.30
2022-11-22T03:53:17.426Z,2.30
2022-11-22T03:56:09.630Z,2.30
2022-11-22T03:59:01.838Z,2.40
2022-11-22T04:01:54.053Z,2.40
2022-11-22T04:04:46.194Z,2.40
2022-11-22T04:07:38.414Z,2.40
2022-11-22T04:10:30.589Z,2.50
2022-11-22T04:13:42.676Z,2.50
2022-11-22T04:16:34.798Z,2.50
2022-11-22T04:19:27.108Z,2.50
2022-11-22T04:22:19.390Z,2.50
2022-11-22T04:25:14.473Z,2.50
2022-11-22T04:28:08.479Z,2.60
2022-11-22T04:31:19.306Z,2.60
2022-11-22T04:34:11.475Z,2.60
2022-11-22T04:37:05.196Z,2.70
2022-11-22T04:39:57.334Z,2.60
2022-11-22T04:43:07.994Z,2.70
2022-11-22T04:46:00.027Z,2.70
2022-11-22T04:48:52.113Z,2.70
2022-11-22T04:52:02.698Z,2.70
2022-11-22T04:54:54.734Z,2.70
2022-11-22T04:57:46.840Z,2.50
2022-11-22T05:00:39.999Z,2.70
2022-11-22T05:03:32.371Z,2.70
2022-11-22T05:06:24.494Z,2.60
2022-11-22T05:09:16.743Z,2.50
2022-11-22T05:12:08.873Z,2.50
2022-11-22T05:15:01.154Z,2.40
2022-11-22T05:17:54.283Z,2.40
2022-11-22T05:20:47.449Z,2.40
2022-11-22T05:23:54.939Z,2.30
2022-11-22T05:26:47.072Z,2.20
2022-11-22T05:29:39.176Z,2.20
2022-11-22T05:32:32.746Z,2.20
2022-11-22T05:35:24.887Z,2.10
2022-11-22T05:38:17.213Z,2.00
2022-11-22T05:41:11.539Z,2.00
2022-11-22T05:44:03.973Z,1.90
2022-11-22T05:46:56.099Z,1.90
2022-11-22T05:49:48.451Z,1.80
2022-11-22T05:52:40.637Z,1.80
2022-11-22T05:55:32.783Z,1.90
2022-11-22T05:58:24.897Z,2.00
2022-11-22T06:01:22.308Z,1.90
2022-11-22T06:04:14.484Z,1.80
2022-11-22T06:07:10.066Z,1.70
2022-11-22T06:10:02.609Z,1.70
2022-11-22T06:12:55.348Z,1.70
2022-11-22T06:15:47.453Z,1.70
2022-11-22T06:18:39.958Z,1.70
2022-11-22T06:21:32.226Z,1.60
2022-11-22T06:24:24.372Z,1.60
2022-11-22T06:27:16.521Z,1.60
2022-11-22T06:30:09.202Z,1.70
2022-11-22T06:33:01.297Z,1.60
2022-11-22T06:35:53.527Z,1.70
2022-11-22T06:38:46.382Z,1.60
2022-11-22T06:41:38.832Z,1.60
2022-11-22T06:44:30.933Z,1.70
2022-11-22T06:47:23.042Z,1.60
2022-11-22T06:50:21.431Z,1.70
2022-11-22T06:53:32.619Z,1.80
2022-11-22T06:56:35.946Z,1.90
2022-11-22T06:59:28.500Z,1.90
2022-11-22T07:02:21.067Z,1.90
2022-11-22T07:05:28.575Z,1.90
2022-11-22T07:08:20.906Z,1.90
2022-11-22T07:11:18.882Z,2.00
2022-11-22T07:14:11.013Z,2.00
2022-11-22T07:17:03.132Z,2.00
2022-11-22T07:19:55.289Z,2.00
2022-11-22T07:22:47.912Z,2.00
2022-11-22T07:25:44.743Z,2.00
2022-11-22T07:28:37.560Z,2.00
2022-11-22T07:31:29.773Z,2.00
2022-11-22T07:34:21.922Z,2.10
2022-11-22T07:37:14.071Z,2.10
2022-11-22T07:40:06.964Z,2.10
2022-11-22T07:42:59.138Z,2.00
2022-11-22T07:45:51.292Z,2.10
2022-11-22T07:48:43.428Z,2.00
2022-11-22T07:51:35.567Z,2.00
2022-11-22T07:54:27.691Z,2.10
2022-11-22T07:57:20.102Z,2.10
2022-11-22T08:00:13.415Z,2.10
2022-11-22T08:03:08.072Z,2.10
2022-11-22T08:06:01.283Z,2.10
2022-11-22T08:08:58.593Z,2.10
2022-11-22T08:11:53.796Z,2.20
2022-11-22T08:14:46.015Z,2.20
2022-11-22T08:17:38.598Z,2.10
2022-11-22T08:20:30.749Z,2.10
2022-11-22T08:23:22.878Z,2.10
2022-11-22T08:26:17.332Z,2.20
2022-11-22T08:29:14.366Z,2.30
2022-11-22T08:32:06.877Z,2.30
2022-11-22T08:34:59.003Z,2.40
2022-11-22T08:37:55.823Z,2.40
2022-11-22T08:40:47.938Z,2.40
2022-11-22T08:43:40.170Z,2.40
2022-11-22T08:46:32.299Z,2.40
2022-11-22T08:49:24.490Z,2.40
2022-11-22T08:52:16.591Z,2.50
2022-11-22T08:55:09.355Z,2.50
2022-11-22T08:58:01.539Z,2.50
2022-11-22T09:00:53.681Z,2.50
2022-11-22T09:03:45.827Z,2.60
2022-11-22T09:09:51.258Z,2.70
2022-11-22T09:12:45.073Z,2.80
2022-11-22T09:15:37.596Z,2.90
2022-11-22T09:18:29.897Z,2.90
2022-11-22T09:21:22.101Z,2.90
2022-11-22T09:24:14.214Z,2.90
2022-11-22T09:27:06.863Z,3.00
2022-11-22T09:29:59.058Z,3.00
2022-11-22T09:32:51.235Z,3.00
2022-11-22T09:35:43.331Z,3.00
2022-11-22T09:38:36.536Z,3.10
2022-11-22T09:41:40.492Z,3.00
2022-11-22T09:44:35.342Z,3.10
2022-11-22T09:48:09.390Z,3.10
2022-11-22T09:51:11.236Z,3.10
2022-11-22T09:54:15.464Z,3.00
2022-11-22T09:57:14.103Z,3.10
2022-11-22T10:00:19.702Z,3.20
2022-11-22T10:03:24.393Z,3.20
2022-11-22T10:06:22.934Z,3.30
2022-11-22T10:09:42.510Z,3.30
2022-11-22T10:12:56.527Z,3.40
2022-11-22T10:16:07.080Z,3.50
2022-11-22T10:19:20.663Z,3.50
2022-11-22T10:22:14.480Z,3.70
2022-11-22T10:25:34.313Z,3.90
2022-11-22T10:28:49.926Z,3.80
2022-11-22T10:32:04.313Z,3.90
2022-11-22T10:34:59.279Z,3.90
2022-11-22T10:38:15.028Z,3.90
2022-11-22T10:41:31.829Z,3.90
2022-11-22T10:44:53.413Z,3.90
2022-11-22T10:48:04.613Z,3.90
2022-11-22T10:51:20.705Z,4.00
2022-11-22T10:54:17.881Z,4.00
2022-11-22T10:57:27.438Z,4.10
2022-11-22T11:00:22.021Z,4.10
2022-11-22T11:03:36.187Z,4.10
2022-11-22T11:07:10.391Z,4.20
2022-11-22T11:10:10.814Z,4.10
2022-11-22T11:13:14.298Z,4.20
2022-11-22T11:16:10.978Z,4.10
2022-11-22T11:19:17.542Z,4.10
2022-11-22T11:22:09.641Z,4.20
2022-11-22T11:25:33.265Z,4.30
2022-11-22T11:28:28.412Z,4.40
2022-11-22T11:31:21.826Z,4.40
2022-11-22T11:34:24.384Z,4.40
2022-11-22T11:37:33.069Z,4.30
2022-11-22T11:40:28.482Z,4.40
2022-11-22T11:43:23.023Z,4.40
2022-11-22T11:46:18.135Z,4.40
2022-11-22T11:49:18.508Z,4.40
2022-11-22T11:52:21.879Z,4.40
2022-11-22T11:55:16.866Z,4.40
2022-11-22T11:58:35.443Z,4.30
2022-11-22T12:01:27.640Z,4.30
2022-11-22T12:04:23.798Z,4.30
2022-11-22T12:07:45.979Z,4.30
2022-11-22T12:10:40.935Z,4.30
2022-11-22T12:13:57.742Z,4.30
2022-11-22T12:16:56.136Z,4.30
2022-11-22T12:19:58.581Z,4.30
2022-11-22T12:23:14.384Z,4.40
2022-11-22T12:26:06.623Z,4.30
2022-11-22T12:28:59.665Z,4.40
2022-11-22T12:32:00.622Z,4.40
2022-11-22T12:35:07.228Z,4.40
2022-11-22T12:38:17.237Z,4.40
2022-11-22T12:41:13.650Z,4.40
2022-11-22T12:44:13.799Z,4.40
2022-11-22T12:47:28.712Z,4.50
2022-11-22T12:50:28.381Z,4.60
2022-11-22T12:53:42.444Z,4.60
2022-11-22T12:56:45.940Z,4.60
2022-11-22T12:59:47.620Z,4.60
2022-11-22T13:02:47.041Z,4.60
2022-11-22T13:05:49.797Z,4.60
2022-11-22T13:08:58.920Z,4.60
2022-11-22T13:12:13.799Z,4.60
2022-11-22T13:15:06.745Z,4.60
2022-11-22T13:17:59.118Z,4.60
2022-11-22T13:21:13.118Z,4.60
2022-11-22T13:24:31.499Z,4.60
2022-11-22T13:27:42.054Z,4.50
2022-11-22T13:30:41.899Z,4.50
2022-11-22T13:33:36.343Z,4.50
2022-11-22T13:36:31.453Z,4.50
2022-11-22T13:39:25.952Z,4.40
2022-11-22T13:42:19.590Z,4.30
2022-11-22T13:45:24.094Z,4.30
2022-11-22T13:48:41.301Z,4.30
2022-11-22T13:52:04.382Z,4.30
2022-11-22T13:54:56.927Z,4.30
2022-11-22T13:57:49.199Z,4.30
2022-11-22T14:00:41.661Z,4.20
2022-11-22T14:03:41.766Z,4.20
2022-11-22T14:06:34.727Z,4.20
2022-11-22T14:09:50.831Z,4.10
2022-11-22T14:13:13.699Z,4.20
2022-11-22T14:16:11.911Z,4.10
2022-11-22T14:19:22.874Z,4.00
2022-11-22T14:22:34.416Z,4.00
2022-11-22T14:25:40.966Z,4.00
2022-11-22T14:28:57.910Z,3.90
2022-11-22T14:32:19.573Z,3.90
2022-11-22T14:35:22.494Z,3.90
2022-11-22T14:38:31.250Z,3.90
2022-11-22T14:41:30.350Z,3.80
2022-11-22T14:44:32.039Z,3.80
2022-11-22T14:47:24.580Z,3.80
2022-11-22T14:50:42.842Z,3.80
2022-11-22T14:53:50.967Z,3.80
2022-11-22T14:56:44.927Z,3.80
2022-11-22T14:59:59.399Z,3.70
2022-11-22T15:03:20.565Z,3.70
2022-11-22T15:09:12.370Z,3.60
2022-11-22T15:10:17.328Z,3.60
2022-11-22T15:13:15.348Z,3.70
2022-11-22T15:58:56.577Z,3.80
2022-11-22T16:01:48.902Z,3.80
2022-11-22T16:06:08.093Z,3.80
2022-11-22T16:08:19.437Z,3.80
2022-11-22T16:11:23.646Z,3.80
2022-11-22T16:14:45.830Z,3.80
2022-11-22T16:17:38.547Z,3.80
2022-11-22T16:20:33.498Z,3.80
2022-11-22T16:23:31.786Z,3.80
2022-11-22T16:26:31.469Z,3.80
2022-11-22T16:29:32.332Z,3.80
2022-11-22T16:32:24.788Z,3.80
2022-11-22T16:35:29.209Z,3.80
2022-11-22T16:38:22.518Z,3.70
2022-11-22T16:41:18.071Z,3.70
2022-11-22T16:44:16.531Z,3.70
2022-11-22T16:47:19.294Z,3.70
2022-11-22T16:50:12.849Z,3.70
2022-11-22T16:53:11.630Z,3.70
2022-11-22T16:56:03.903Z,3.80
2022-11-22T16:58:57.519Z,3.80
2022-11-22T17:01:50.601Z,3.80
2022-11-22T17:04:46.092Z,3.80
2022-11-22T17:07:38.260Z,3.90
2022-11-22T17:10:31.066Z,3.90
2022-11-22T17:13:25.619Z,3.90
2022-11-22T17:16:18.031Z,4.00
2022-11-22T17:19:24.174Z,4.00
2022-11-22T17:22:22.341Z,4.00
2022-11-22T17:25:14.727Z,4.00
2022-11-22T17:28:06.891Z,4.00
2022-11-22T17:30:59.930Z,4.00
2022-11-22T17:33:53.712Z,4.10
2022-11-22T17:36:45.906Z,4.10
2022-11-22T17:39:38.330Z,4.10
2022-11-22T17:42:30.448Z,4.10
2022-11-22T17:45:22.727Z,4.10
2022-11-22T17:48:14.946Z,4.10
2022-11-22T17:51:08.976Z,4.10
2022-11-22T17:54:01.164Z,4.10
2022-11-22T17:56:53.307Z,4.10
2022-11-22T17:59:45.485Z,4.10
2022-11-22T18:02:37.667Z,4.20
2022-11-22T18:05:29.810Z,4.10
2022-11-22T18:08:21.922Z,4.10
2022-11-22T18:11:14.980Z,4.00
2022-11-22T18:14:07.174Z,4.00
2022-11-22T18:17:00.427Z,3.90
2022-11-22T18:19:52.582Z,3.90
2022-11-22T18:22:44.696Z,3.90
2022-11-22T18:25:37.296Z,3.90
2022-11-22T18:28:29.833Z,3.90
2022-11-22T18:31:22.030Z,3.90
2022-11-22T18:34:14.166Z,3.80
2022-11-22T18:37:06.323Z,3.80
2022-11-22T18:39:58.440Z,3.70
2022-11-22T18:42:51.551Z,3.80
2022-11-22T18:45:43.678Z,3.80
2022-11-22T18:48:36.754Z,3.90
2022-11-22T18:51:28.858Z,4.00
2022-11-22T18:54:22.145Z,4.00
2022-11-22T18:57:14.455Z,3.90
2022-11-22T19:00:07.249Z,3.90
2022-11-22T19:03:01.518Z,3.90
2022-11-22T19:05:53.648Z,3.90
2022-11-22T19:08:46.513Z,3.90
2022-11-22T19:11:38.643Z,3.90
2022-11-22T19:14:31.076Z,3.90
2022-11-22T19:17:23.730Z,3.90
2022-11-22T19:20:39.364Z,3.90
2022-11-22T19:23:29.879Z,3.90
2022-11-22T19:26:24.537Z,4.00
2022-11-22T19:29:17.198Z,4.00
2022-11-22T19:32:09.411Z,3.90
2022-11-22T19:35:01.528Z,3.90
2022-11-22T19:37:53.626Z,3.90
2022-11-22T19:40:45.786Z,3.90
2022-11-22T19:43:38.696Z,3.90
2022-11-22T19:46:30.849Z,3.90
2022-11-22T19:49:23.012Z,3.90
2022-11-22T19:52:15.118Z,3.90
2022-11-22T19:55:07.604Z,4.00
2022-11-22T19:58:00.315Z,4.00
2022-11-22T20:00:52.503Z,4.10
2022-11-22T20:03:45.118Z,4.20
2022-11-22T20:06:37.505Z,4.20
2022-11-22T20:09:29.796Z,4.30
2022-11-22T20:12:22.130Z,4.30
2022-11-22T20:15:14.292Z,4.30
2022-11-22T20:18:06.706Z,4.30
2022-11-22T20:21:03.288Z,4.40
2022-11-22T20:23:56.680Z,4.50
2022-11-22T20:26:48.800Z,4.40
2022-11-22T20:29:40.958Z,4.40
2022-11-22T20:32:33.111Z,4.50
2022-11-22T20:35:25.515Z,4.50
2022-11-22T20:38:17.679Z,4.40
2022-11-22T20:41:11.261Z,4.40
2022-11-22T20:44:03.857Z,4.40
2022-11-22T20:46:55.990Z,4.40
2022-11-22T20:49:48.128Z,4.40
2022-11-22T20:52:40.333Z,4.40
2022-11-22T20:55:32.451Z,4.50
2022-11-22T20:58:26.120Z,4.40
2022-11-22T21:01:23.736Z,4.40
2022-11-22T21:04:19.171Z,4.40
2022-11-22T21:07:11.338Z,4.50
2022-11-22T21:10:03.674Z,4.40
2022-11-22T21:12:56.024Z,4.40
2022-11-22T21:15:48.140Z,4.40
2022-11-22T21:18:40.447Z,4.30
2022-11-22T21:21:35.719Z,4.30
2022-11-22T21:24:27.907Z,4.20
2022-11-22T21:27:20.205Z,4.20
2022-11-22T21:30:13.144Z,4.20
2022-11-22T21:33:05.280Z,4.10
2022-11-22T21:35:57.441Z,4.10
2022-11-22T21:38:49.720Z,4.00
2022-11-22T21:41:41.957Z,4.10
2022-11-22T21:44:34.132Z,4.00
2022-11-22T21:47:26.279Z,4.00
2022-11-22T21:50:18.499Z,4.00
2022-11-22T21:53:10.695Z,4.00
2022-11-22T21:56:03.839Z,4.00
2022-11-22T21:58:56.469Z,3.90
2022-11-22T22:01:48.596Z,4.00
2022-11-22T22:04:40.749Z,4.00
2022-11-22T22:10:49.035Z,4.00
2022-11-22T22:13:41.138Z,4.00
2022-11-22T22:16:33.427Z,4.00
2022-11-22T22:19:25.595Z,3.90
2022-11-22T22:22:18.105Z,4.00
2022-11-22T22:25:10.284Z,4.00
2022-11-22T22:28:02.410Z,4.00
2022-11-22T22:31:22.558Z,4.00
2022-11-22T22:34:16.309Z,3.90
2022-11-22T22:37:08.404Z,3.90
2022-11-22T22:40:00.592Z,3.90
2022-11-22T22:42:52.705Z,3.90
2022-11-22T22:45:44.830Z,3.90
2022-11-22T22:48:37.029Z,3.90
2022-11-22T22:51:33.171Z,3.90
2022-11-22T22:54:25.727Z,3.90
2022-11-22T22:57:17.851Z,3.90
2022-11-22T23:00:10.595Z,3.90
2022-11-22T23:03:02.876Z,3.90
2022-11-22T23:05:55.110Z,4.00
2022-11-22T23:08:49.239Z,4.00
2022-11-22T23:12:00.170Z,4.00
2022-11-22T23:14:52.270Z,4.10
2022-11-22T23:17:44.387Z,4.10
2022-11-22T23:20:36.585Z,4.10
2022-11-22T23:23:29.697Z,4.10
2022-11-22T23:26:21.851Z,4.10
2022-11-22T23:29:14.163Z,4.10
2022-11-22T23:32:06.301Z,4.10
2022-11-22T23:34:58.446Z,4.20
2022-11-22T23:37:50.555Z,4.20
2022-11-22T23:40:42.684Z,4.20
2022-11-22T23:43:34.910Z,4.20
2022-11-22T23:46:28.784Z,4.20
2022-11-22T23:49:20.939Z,4.10
2022-11-22T23:52:13.116Z,4.20
2022-11-22T23:55:05.633Z,4.20
2022-11-22T23:57:58.593Z,4.20
